Prudhoe Bay, Alaska
Current Conditions -  °F | °C
As of 4:53 AM on Thursday 18 Dec 2014 (Local Time) from PASC Reporting Station
Clear Clear  
Wind Chill: -26°   Ceiling: Unl
Heat Index: -10°   Visibility: 10mi
Dew Point: -16°   Wind: 8mph
Humidity: 74%   Direction: 10°N
Pressure: 29.89"   Gusts: NA
Location:  70.28°N, 148.38°W
Report Text: PASC 181353Z 01007KT 10SM CLR M23/M27 A2989 RMK AO2 SLP125 T12331267
Loading
Personal Weather Stations






























Interactive Weather Map New forecast layout! Learn more

10-Day Weather Forecast

Advertisements
Track Severe Weather on mobile